Overview Statistics Trail Chart Weather Telemetry Raw packets
 

This is the latest recevied weather packets stored in our database for station/object SV9TNF-52. If no packets are shown the sender has not sent any weather packets the latest 10 day(s).

<< 71 72 73 74 75 76 77 >>
Time Temp. Humidity Pressure Rain* Wind** Luminosity Snow
1788173866 31.67° C 57% 1020.7 hPa 0 mm 4.02 m/s, 66° - -
1788173566 31.67° C 59% 1020.7 hPa 0 mm 3.58 m/s, 271° - -
1788173277 30° C 60% 1020.7 hPa 0 mm 7.6 m/s, 65° - -
1788172966 31.67° C 57% 1020.7 hPa 0 mm 4.92 m/s, 96° - -
1788172666 31.67° C 57% 1020.7 hPa 0 mm 3.58 m/s, 7° - -
1788172365 31.67° C 58% 1020.7 hPa 0 mm 4.47 m/s, 235° - -
1788172065 31.11° C 59% 1020.7 hPa 0 mm 4.02 m/s, 86° - -
1788171765 30.56° C 61% 1020.7 hPa 0 mm 3.13 m/s, 120° - -
1788171465 31.11° C 61% 1020.7 hPa 0 mm 2.68 m/s, 266° - -
1788171165 29.44° C 63% 1021 hPa 0 mm 8.05 m/s, 325° - -
1788170865 29.44° C 63% 1021 hPa 0 mm 8.05 m/s, 5° - -
1788170565 30° C 62% 1021 hPa 0 mm 7.6 m/s, 133° - -
1788170265 30° C 60% 1021 hPa 0 mm 10.28 m/s, 16° - -
1788169964 30.56° C 61% 1021 hPa 0 mm 8.05 m/s, 80° - -
1788169665 30.56° C 61% 1021 hPa 0 mm 4.92 m/s, 346° - -
1788169364 31.67° C 59% 1021 hPa 0 mm 4.92 m/s, 357° - -
1788169065 31.11° C 59% 1021 hPa 0 mm 4.02 m/s, 192° - -
1788168764 29.44° C 61% 1021.7 hPa 0 mm 6.26 m/s, 57° - -
1788168464 30.56° C 59% 1021.7 hPa 0 mm 5.81 m/s, 170° - -
1788168164 30° C 60% 1021.7 hPa 0 mm 5.36 m/s, 5° - -
1788167864 30° C 58% 1021.7 hPa 0 mm 8.05 m/s, 9° - -
1788167564 31.11° C 58% 1021.7 hPa 0 mm 7.6 m/s, 68° - -
1788167264 31.11° C 58% 1021.7 hPa 0 mm 4.92 m/s, 256° - -
1788166964 31.11° C 60% 1021.7 hPa 0 mm 3.13 m/s, 219° - -
1788166664 31.11° C 58% 1021.7 hPa 0 mm 4.02 m/s, 248° - -

* Rain latest hour (hover to see other rain measurements)
** Current wind speed in m/s (hover to see current wind gust speed)